Main page
METAR-TAF:

METAR-TAF

Airports :

Tak Airport

Tak, Thailand

latitude: 16-53N, longitude: 099-09E, elevation: 121 m

METAR: missing

Time: 13:22 (06:22 UTC)

Forecast

The report was made 1 hour and 22 minutes ago, at 05:00 UTC
Forecast valid from 06 at 06 UTC to 07 at 06 UTC
Wind 8 kt from the East
Visibility: 6000 m
Few clouds at a height of 4000 ft

TAF: VTPT 060500Z 0606/0706 08008KT 6000 FEW040

Weather observations and forecasts of more than 4000 airports (METAR and TAF reports).

The available stations are represented by yellow and red dots on the map.

Hover mouse over dot to see the name of the station.

Then click to see weather observations and forecasts.

To change the map : click on the green buttons with a black cross to zoom in, on the green button with a dash to zoom out, or on the green arrows for adjacent maps.


METAR-TAF: